Time;durP1;ratioP1;P1;durP2;ratioP2;P2;SDS_P1;SDS_P2;PMS_P1;PMS_P2;Temp;Humidity;BMP_temperature;BMP_pressure;BME280_temperature;BME280_humidity;BME280_pressure;Samples;Min_cycle;Max_cycle;Signal;HPM_P1;HPM_P2
2023/04/02 00:21:15;;;;;;;;;;;;;;;9.66;75.55;99077.72;1087575;54;19935;-80
2023/04/02 00:22:19;;;;;;;;;;;;;;;9.59;75.68;99082.06;1088030;54;19942;-80
2023/04/02 00:23:25;;;;;;;;;;;;;;;9.73;75.61;99091.28;1088076;54;19982;-81
2023/04/02 02:11:31;;;;;;;;;;;;;;;9.35;77.60;99153.00;1086991;54;19939;-80
2023/04/02 02:12:32;;;;;;;;;;;;;;;9.38;77.68;99158.00;1087589;54;19942;-80
2023/04/02 02:13:36;;;;;;;;;;;;;;;9.36;77.30;99160.84;1087528;54;19950;-80
2023/04/02 02:14:37;;;;;;;;;;;;;;;9.26;77.55;99165.44;1087620;54;19938;-81
2023/04/02 02:15:41;;;;;;;;;;;;;;;9.30;77.73;99166.81;1087686;54;19942;-80
2023/04/02 02:16:43;;;;;;;;;;;;;;;9.30;78.12;99160.63;1088221;46;19942;-80
2023/04/02 02:17:46;;;;;;;;;;;;;;;9.38;77.87;99159.84;1087595;54;19950;-80
2023/04/02 02:18:50;;;;;;;;;;;;;;;9.27;77.38;99160.94;1088494;46;19943;-80
2023/04/02 02:19:56;;;;;;;;;;;;;;;9.18;77.99;99166.22;1087612;54;19970;-80
2023/04/02 02:20:59;;;;;;;;;;;;;;;9.16;78.26;99165.53;1087581;54;19942;-80
2023/04/02 02:22:08;;;;;;;;;;;;;;;9.20;78.02;99164.25;1087657;54;19946;-80
2023/04/02 02:23:12;;;;;;;;;;;;;;;9.20;77.91;99160.75;1087591;54;19950;-80
2023/04/02 02:24:18;;;;;;;;;;;;;;;9.21;77.92;99173.91;1087535;54;19946;-80
2023/04/02 02:25:23;;;;;;;;;;;;;;;9.24;78.07;99167.44;1087775;47;19939;-80
2023/04/02 02:26:27;;;;;;;;;;;;;;;9.25;77.81;99161.09;1087420;54;19934;-80
2023/04/02 02:27:45;;;;;;;;;;;;;;;9.32;77.17;99172.81;1087463;54;19943;-80
2023/04/02 02:28:52;;;;;;;;;;;;;;;9.28;77.58;99173.28;1087490;54;19943;-79
2023/04/02 02:29:55;;;;;;;;;;;;;;;9.26;77.79;99167.28;1087457;54;19942;-79
2023/04/02 02:31:01;;;;;;;;;;;;;;;9.26;77.64;99172.63;1087562;54;19946;-80
2023/04/02 02:32:03;;;;;;;;;;;;;;;9.27;77.53;99166.25;1087665;54;19938;-80
2023/04/02 02:33:13;;;;;;;;;;;;;;;9.32;77.56;99170.13;1087659;54;19942;-80
2023/04/02 02:34:15;;;;;;;;;;;;;;;9.29;77.43;99170.47;1087457;54;19950;-80
2023/04/02 02:35:21;;;;;;;;;;;;;;;9.26;77.57;99177.97;1087590;54;20007;-79
2023/04/02 02:36:26;;;;;;;;;;;;;;;9.26;77.50;99165.44;1087841;54;19949;-80
2023/04/02 02:37:33;;;;;;;;;;;;;;;9.36;77.33;99178.66;1089125;47;19994;-79
2023/04/02 02:38:40;;;;;;;;;;;;;;;9.41;77.26;99181.69;1087796;54;19950;-80
2023/04/02 02:41:29;;;;;;;;;;;;;;;9.41;76.76;99179.03;1087712;54;19939;-80
2023/04/02 02:43:12;;;;;;;;;;;;;;;9.41;77.03;99184.38;1089788;47;19942;-81
2023/04/02 02:46:20;;;;;;;;;;;;;;;9.38;76.99;99178.50;1087421;54;20021;-81
2023/04/02 02:49:51;;;;;;;;;;;;;;;9.40;76.75;99182.69;1087468;54;19951;-81
2023/04/02 02:51:07;;;;;;;;;;;;;;;9.35;76.90;99177.84;1087265;54;20001;-80
2023/04/02 02:52:25;;;;;;;;;;;;;;;9.34;77.00;99184.16;1087400;54;20022;-81
2023/04/02 02:55:35;;;;;;;;;;;;;;;9.35;76.42;99185.84;1087444;54;19945;-80
2023/04/02 02:58:30;;;;;;;;;;;;;;;9.33;76.70;99182.47;1087355;54;19965;-81
2023/04/02 02:59:41;;;;;;;;;;;;;;;9.35;76.51;99182.34;1087461;54;19946;-80
2023/04/02 03:06:06;;;;;;;;;;;;;;;9.35;76.52;99193.00;1087345;54;19938;-80
2023/04/02 03:07:11;;;;;;;;;;;;;;;9.34;76.78;99191.34;1087325;54;19939;-80
2023/04/02 03:08:20;;;;;;;;;;;;;;;9.27;76.65;99192.94;1087414;54;20023;-80
2023/04/02 03:09:26;;;;;;;;;;;;;;;9.28;76.70;99189.28;1087277;54;19930;-79
2023/04/02 03:10:35;;;;;;;;;;;;;;;9.29;76.49;99202.47;1087501;54;19949;-80
2023/04/02 03:12:27;;;;;;;;;;;;;;;9.28;76.53;99197.28;1088916;47;19951;-81
2023/04/02 03:13:37;;;;;;;;;;;;;;;9.19;76.95;99201.75;1088157;54;19942;-80
2023/04/02 03:14:42;;;;;;;;;;;;;;;9.23;76.88;99204.94;1089222;47;19953;-80
2023/04/02 03:15:52;;;;;;;;;;;;;;;9.32;76.73;99204.00;1088221;47;19953;-79
2023/04/02 03:16:57;;;;;;;;;;;;;;;9.37;76.43;99207.00;1088635;47;19950;-80
2023/04/02 03:18:04;;;;;;;;;;;;;;;9.42;76.49;99212.72;1087811;54;19943;-79
2023/04/02 03:19:08;;;;;;;;;;;;;;;9.39;76.21;99207.69;1088928;47;19950;-80
2023/04/02 03:20:16;;;;;;;;;;;;;;;9.28;76.36;99213.28;1087694;54;19998;-80
2023/04/02 03:21:21;;;;;;;;;;;;;;;9.35;76.34;99209.84;1087735;54;19942;-79
2023/04/02 03:22:31;;;;;;;;;;;;;;;9.34;76.35;99216.16;1088478;47;20011;-79
2023/04/02 03:23:35;;;;;;;;;;;;;;;9.39;75.98;99215.69;1087707;54;19942;-80
2023/04/02 03:24:43;;;;;;;;;;;;;;;9.45;76.03;99215.06;1088505;47;19943;-78
2023/04/02 03:25:48;;;;;;;;;;;;;;;9.41;76.04;99216.38;1088427;47;19930;-80
2023/04/02 03:31:19;;;;;;;;;;;;;;;9.40;76.03;99220.03;1087439;54;19938;-78
2023/04/02 03:34:12;;;;;;;;;;;;;;;9.39;75.86;99218.34;1089984;47;19974;-80
2023/04/02 03:35:40;;;;;;;;;;;;;;;9.44;75.70;99221.41;1087747;54;19938;-81
2023/04/02 03:37:05;;;;;;;;;;;;;;;9.44;75.50;99229.41;1089879;47;20011;-80
2023/04/02 03:38:26;;;;;;;;;;;;;;;9.46;75.36;99229.25;1087639;54;19946;-81
2023/04/02 03:41:37;;;;;;;;;;;;;;;;;;;;;
2023/04/02 03:43:00;;;;;;;;;;;;;;;9.41;75.35;99227.06;1089058;46;19942;-81
2023/04/02 03:44:32;;;;;;;;;;;;;;;9.44;75.74;99241.91;1088261;46;19950;-80
2023/04/02 03:45:38;;;;;;;;;;;;;;;9.43;75.52;99227.75;1088035;54;19942;-81
2023/04/02 03:46:47;;;;;;;;;;;;;;;9.38;75.43;99230.03;1089129;46;19949;-82
2023/04/02 03:48:03;;;;;;;;;;;;;;;9.41;75.77;99232.38;1087421;54;19945;-81
2023/04/02 03:49:28;;;;;;;;;;;;;;;9.37;75.55;99236.34;1088860;46;19942;-80
2023/04/02 03:50:39;;;;;;;;;;;;;;;9.37;75.78;99233.69;1088023;54;19939;-82
2023/04/02 03:52:00;;;;;;;;;;;;;;;9.41;75.52;99236.88;1088740;46;19943;-80
2023/04/02 03:53:05;;;;;;;;;;;;;;;9.40;75.88;99240.56;1087802;47;19939;-80
2023/04/02 03:54:11;;;;;;;;;;;;;;;9.37;75.86;99244.34;1088065;46;19946;-81
2023/04/02 03:55:21;;;;;;;;;;;;;;;9.34;75.73;99244.69;1087747;47;20002;-81
2023/04/02 03:56:27;;;;;;;;;;;;;;;9.35;75.65;99243.69;1087883;54;19942;-80
2023/04/02 03:57:33;;;;;;;;;;;;;;;9.37;75.68;99239.00;1087919;46;19943;-80
2023/04/02 03:58:38;;;;;;;;;;;;;;;9.38;75.65;99248.69;1087960;46;19951;-81
2023/04/02 03:59:45;;;;;;;;;;;;;;;9.43;75.31;99246.41;1087791;54;19939;-80
2023/04/02 04:00:50;;;;;;;;;;;;;;;9.39;75.46;99253.03;1087933;54;19966;-80
2023/04/02 04:01:57;;;;;;;;;;;;;;;9.47;75.51;99254.94;1087949;54;19990;-80
2023/04/02 04:03:09;;;;;;;;;;;;;;;9.43;75.36;99250.88;1087949;54;19939;-80
2023/04/02 04:04:19;;;;;;;;;;;;;;;9.40;75.55;99260.06;1087991;47;19943;-80
2023/04/02 04:05:23;;;;;;;;;;;;;;;9.38;75.54;99262.03;1089136;46;19938;-80
2023/04/02 04:06:29;;;;;;;;;;;;;;;9.33;75.42;99256.34;1087820;54;19943;-80
2023/04/02 04:07:31;;;;;;;;;;;;;;;9.34;75.44;99258.84;1087883;54;19966;-80
2023/04/02 04:08:41;;;;;;;;;;;;;;;9.40;75.56;99261.91;1090104;46;19938;-81
2023/04/02 04:09:45;;;;;;;;;;;;;;;9.35;75.44;99259.69;1087935;54;19966;-80
2023/04/02 04:10:55;;;;;;;;;;;;;;;9.36;75.31;99262.19;1090798;39;20137;-80
2023/04/02 04:12:01;;;;;;;;;;;;;;;9.33;75.39;99256.34;1087883;54;19938;-80
2023/04/02 04:13:08;;;;;;;;;;;;;;;9.30;75.64;99262.84;1087690;54;19943;-80
2023/04/02 04:14:12;;;;;;;;;;;;;;;9.28;75.74;99264.81;1087762;54;19969;-80
2023/04/02 04:15:18;;;;;;;;;;;;;;;9.36;75.55;99264.00;1088551;46;19950;-80
2023/04/02 04:16:21;;;;;;;;;;;;;;;9.32;75.69;99266.16;1087787;54;19938;-80
2023/04/02 04:17:28;;;;;;;;;;;;;;;9.33;75.64;99261.69;1088388;46;19950;-80
2023/04/02 04:18:33;;;;;;;;;;;;;;;9.27;75.78;99265.81;1088717;46;19949;-81
2023/04/02 04:19:44;;;;;;;;;;;;;;;9.30;75.62;99265.50;1087831;54;19949;-80
2023/04/02 04:20:49;;;;;;;;;;;;;;;9.26;75.63;99265.97;1088884;46;19946;-80
2023/04/02 04:21:55;;;;;;;;;;;;;;;9.24;75.79;99275.94;1087832;54;20008;-80
2023/04/02 04:23:07;;;;;;;;;;;;;;;9.21;76.16;99269.91;1088285;46;19966;-80
2023/04/02 04:24:19;;;;;;;;;;;;;;;9.16;76.49;99272.19;1088573;46;19965;-81
2023/04/02 04:25:21;;;;;;;;;;;;;;;9.19;76.33;99273.75;1089214;46;19946;-80
2023/04/02 04:26:33;;;;;;;;;;;;;;;9.17;76.59;99279.22;1087966;47;19958;-80
2023/04/02 04:27:41;;;;;;;;;;;;;;;9.20;76.61;99284.25;1087859;54;19949;-80
2023/04/02 04:28:59;;;;;;;;;;;;;;;9.25;76.23;99280.28;1087787;54;19958;-79
2023/04/02 04:30:04;;;;;;;;;;;;;;;9.25;76.06;99280.28;1087844;54;19973;-81
2023/04/02 04:31:16;;;;;;;;;;;;;;;9.26;76.05;99282.78;1088645;46;20331;-80
2023/04/02 04:32:26;;;;;;;;;;;;;;;9.27;75.88;99283.63;1090289;46;19965;-80
2023/04/02 04:33:33;;;;;;;;;;;;;;;9.29;75.97;99289.63;1089669;46;19945;-80
2023/04/02 04:34:41;;;;;;;;;;;;;;;9.26;76.27;99287.31;1088160;47;19934;-80
2023/04/02 04:35:50;;;;;;;;;;;;;;;9.24;76.15;99294.63;1087947;47;19949;-81
2023/04/02 04:36:53;;;;;;;;;;;;;;;9.34;75.83;99295.38;1087886;54;20020;-80
2023/04/02 04:37:59;;;;;;;;;;;;;;;9.32;76.03;99289.34;1088018;46;19949;-80
2023/04/02 04:39:06;;;;;;;;;;;;;;;9.29;75.99;99298.50;1088875;46;19935;-80
2023/04/02 04:40:13;;;;;;;;;;;;;;;9.26;75.98;99296.13;1087864;54;19938;-81
2023/04/02 04:41:16;;;;;;;;;;;;;;;9.32;75.92;99300.84;1088094;46;19962;-80
2023/04/02 04:42:24;;;;;;;;;;;;;;;9.32;75.65;99297.34;1087955;54;19947;-80
2023/04/02 04:43:29;;;;;;;;;;;;;;;9.33;76.08;99301.69;1088048;46;19938;-80
2023/04/02 06:35:07;;;;;;;;;;;;;;;9.29;78.03;99447.88;1087174;54;19955;-82
2023/04/02 06:36:15;;;;;;;;;;;;;;;9.25;78.51;99448.31;1087420;54;19949;-83
2023/04/02 06:37:24;;;;;;;;;;;;;;;9.38;78.11;99453.28;1091338;39;20593;-82
2023/04/02 06:38:27;;;;;;;;;;;;;;;9.40;78.07;99454.78;1089004;47;19942;-81
2023/04/02 06:47:10;;;;;;;;;;;;;;;9.31;78.89;99471.72;1087632;54;19930;-79
2023/04/02 06:48:17;;;;;;;;;;;;;;;9.36;78.12;99469.41;1087458;47;19947;-79
2023/04/02 09:38:12;;;;;;;;;;;;;;;11.14;71.23;99688.66;1087816;54;19927;-83
2023/04/02 09:39:19;;;;;;;;;;;;;;;11.10;71.61;99687.28;1088127;46;19958;-84
2023/04/02 09:41:51;;;;;;;;;;;;;;;11.42;70.75;99688.50;1088057;54;19963;-83
2023/04/02 09:43:03;;;;;;;;;;;;;;;11.56;70.35;99682.53;1088136;54;19994;-83
2023/04/02 09:51:52;;;;;;;;;;;;;;;;;;;;;
2023/04/02 09:53:26;;;;;;;;;;;;;;;12.06;68.46;99694.28;1087890;54;20002;-81
2023/04/02 09:54:58;;;;;;;;;;;;;;;12.22;68.29;99698.03;1088016;39;20697;-81
2023/04/02 10:23:41;;;;;;;;;;;;;;;12.08;68.03;99732.50;1087406;54;19919;-81
2023/04/02 10:28:19;;;;;;;;;;;;;;;12.01;67.84;99731.47;1087107;54;19941;-83
2023/04/02 10:29:40;;;;;;;;;;;;;;;11.87;67.96;99740.94;1088086;46;19943;-82
2023/04/02 11:37:53;;;;;;;;;;;;;;;11.16;72.27;99831.97;1087441;54;19939;-81
2023/04/02 11:39:18;;;;;;;;;;;;;;;10.93;72.60;99829.75;1088533;46;19966;-82
2023/04/02 11:53:40;;;;;;;;;;;;;;;9.87;78.43;99872.03;1088174;54;19941;-82
2023/04/02 13:44:30;;;;;;;;;;;;;;;9.16;72.90;100008.25;1088014;54;19927;-83
2023/04/02 13:47:11;;;;;;;;;;;;;;;9.16;72.28;100016.25;1088015;54;19942;-83
2023/04/02 13:48:39;;;;;;;;;;;;;;;9.16;71.67;100007.44;1088048;54;19934;-81
2023/04/02 13:49:54;;;;;;;;;;;;;;;9.05;71.71;100016.41;1089702;46;19933;-83
2023/04/02 13:53:03;;;;;;;;;;;;;;;9.08;72.73;100017.94;1087907;54;19923;-82
2023/04/02 13:54:33;;;;;;;;;;;;;;;8.99;72.15;100011.59;1089728;46;19935;-81
2023/04/02 14:01:14;;;;;;;;;;;;;;;8.97;72.05;100019.72;1089993;46;19954;-81
2023/04/02 14:08:30;;;;;;;;;;;;;;;8.88;71.60;100029.38;1087455;54;19938;-81
2023/04/02 14:09:41;;;;;;;;;;;;;;;8.87;71.88;100025.03;1088017;54;19942;-83
2023/04/02 14:12:38;;;;;;;;;;;;;;;8.81;72.10;100030.88;1087922;54;19946;-83
2023/04/02 14:57:52;;;;;;;;;;;;;;;9.04;67.91;100076.88;1088136;54;19927;-82
2023/04/02 14:59:29;;;;;;;;;;;;;;;9.06;68.24;100082.09;1088260;54;19942;-82
2023/04/02 15:00:47;;;;;;;;;;;;;;;9.01;67.83;100085.16;1088106;54;19941;-84
2023/04/02 15:06:33;;;;;;;;;;;;;;;9.03;67.25;100087.69;1087873;54;19931;-81
2023/04/02 15:09:18;;;;;;;;;;;;;;;9.12;66.57;100092.22;1087709;54;19939;-82
2023/04/02 15:15:16;;;;;;;;;;;;;;;9.14;66.72;100100.94;1087736;54;19986;-82
2023/04/02 15:19:37;;;;;;;;;;;;;;;9.06;67.18;100100.75;1087552;54;19938;-82
2023/04/02 15:20:49;;;;;;;;;;;;;;;9.07;67.43;100106.94;1090776;47;19958;-81
2023/04/02 15:22:13;;;;;;;;;;;;;;;8.98;67.26;100111.22;1087565;54;20017;-81
2023/04/02 15:23:32;;;;;;;;;;;;;;;8.84;67.93;100115.94;1087593;54;20002;-81
2023/04/02 15:24:52;;;;;;;;;;;;;;;8.76;67.68;100117.56;1087781;54;19938;-80
2023/04/02 15:26:09;;;;;;;;;;;;;;;8.72;68.46;100117.84;1087853;54;19962;-83
2023/04/02 15:27:36;;;;;;;;;;;;;;;8.75;68.33;100116.72;1087662;54;19942;-83
2023/04/02 15:28:54;;;;;;;;;;;;;;;8.72;68.88;100107.19;1087514;54;19939;-80
2023/04/02 15:31:49;;;;;;;;;;;;;;;8.64;69.07;100124.78;1087591;54;19945;-81
2023/04/02 15:33:06;;;;;;;;;;;;;;;8.61;68.42;100128.56;1087955;47;19939;-82
2023/04/02 15:35:59;;;;;;;;;;;;;;;8.58;68.30;100126.16;1094479;46;19942;-82
2023/04/02 15:40:01;;;;;;;;;;;;;;;8.55;68.40;100137.91;1087957;54;19958;-83
2023/04/02 15:47:24;;;;;;;;;;;;;;;8.55;67.88;100148.59;1087668;39;20804;-81
2023/04/02 15:48:35;;;;;;;;;;;;;;;8.63;67.48;100137.28;1089479;46;19934;-81
2023/04/02 15:51:21;;;;;;;;;;;;;;;8.56;67.58;100149.41;1088425;54;19931;-82
2023/04/02 15:54:12;;;;;;;;;;;;;;;8.59;67.37;100143.84;1088571;47;19942;-82
2023/04/02 15:55:19;;;;;;;;;;;;;;;8.55;66.94;100150.38;1088294;54;19951;-81
2023/04/02 15:56:36;;;;;;;;;;;;;;;8.50;67.03;100158.75;1088433;47;19939;-82
2023/04/02 15:58:08;;;;;;;;;;;;;;;8.53;67.08;100149.69;1090941;46;19943;-82
2023/04/02 15:59:31;;;;;;;;;;;;;;;8.58;66.94;100155.47;1088581;46;19934;-81
2023/04/02 16:01:25;;;;;;;;;;;;;;;8.51;66.18;100162.28;1087925;54;19938;-81
2023/04/02 16:03:01;;;;;;;;;;;;;;;8.62;65.67;100154.25;1088276;54;19927;-81
2023/04/02 16:41:02;;;;;;;;;;;;;;;8.16;64.10;100221.97;1087856;54;19938;-83
2023/04/02 16:42:18;;;;;;;;;;;;;;;8.16;64.19;100228.13;1090101;39;20617;-83
2023/04/02 16:48:08;;;;;;;;;;;;;;;8.22;64.23;100246.25;1088169;54;19915;-82
2023/04/02 16:53:55;;;;;;;;;;;;;;;8.14;65.41;100247.88;1088104;54;19949;-81
2023/04/02 16:55:11;;;;;;;;;;;;;;;8.04;65.22;100255.72;1087859;54;19970;-82
2023/04/02 16:56:50;;;;;;;;;;;;;;;7.97;65.61;100239.44;1087974;54;19946;-82
2023/04/02 16:59:36;;;;;;;;;;;;;;;7.90;65.43;100257.69;1087995;54;19987;-82
2023/04/02 17:01:14;;;;;;;;;;;;;;;7.86;65.49;100253.56;1088106;54;20688;-82
2023/04/02 17:04:36;;;;;;;;;;;;;;;7.79;64.66;100263.84;1087884;54;19964;-83
2023/04/02 17:09:22;;;;;;;;;;;;;;;7.45;63.62;100279.00;1087915;54;20940;-83
2023/04/02 17:10:49;;;;;;;;;;;;;;;7.42;63.93;100281.88;1088250;54;19970;-82
2023/04/02 17:14:04;;;;;;;;;;;;;;;7.38;64.17;100291.03;1088355;54;19939;-82
2023/04/02 17:27:29;;;;;;;;;;;;;;;7.15;62.47;100326.41;1088269;54;19919;-82
2023/04/02 17:30:36;;;;;;;;;;;;;;;7.18;62.52;100334.16;1088389;54;19954;-82
2023/04/02 17:32:01;;;;;;;;;;;;;;;7.12;62.12;100336.44;1093863;46;19942;-81
2023/04/02 17:41:17;;;;;;;;;;;;;;;7.05;62.38;100364.44;1088122;54;19949;-81
2023/04/02 17:42:55;;;;;;;;;;;;;;;6.96;62.44;100376.59;1088262;54;19985;-82
2023/04/02 17:44:09;;;;;;;;;;;;;;;6.90;62.19;100367.25;1088208;54;20679;-82
2023/04/02 17:45:14;;;;;;;;;;;;;;;6.92;61.58;100375.97;1089543;39;20499;-81
2023/04/02 17:46:25;;;;;;;;;;;;;;;6.94;61.26;100379.38;1088882;46;19939;-82
2023/04/02 17:50:37;;;;;;;;;;;;;;;6.87;61.23;100388.78;1088212;54;19935;-80
2023/04/02 17:51:49;;;;;;;;;;;;;;;6.78;61.36;100392.94;1088142;54;19957;-81
2023/04/02 17:55:15;;;;;;;;;;;;;;;6.75;59.90;100400.28;1088105;54;19943;-82
2023/04/02 17:58:04;;;;;;;;;;;;;;;6.60;59.45;100413.72;1089430;47;19949;-81
2023/04/02 17:59:22;;;;;;;;;;;;;;;6.45;59.48;100407.72;1088056;54;20588;-81
2023/04/02 18:02:09;;;;;;;;;;;;;;;6.34;60.04;100419.06;1088304;54;19939;-81
2023/04/02 18:29:01;;;;;;;;;;;;;;;5.97;58.32;100489.78;1107317;39;21042;-83
2023/04/02 19:11:15;;;;;;;;;;;;;;;5.39;57.46;100578.41;1073775;54;20285;-82
2023/04/02 19:35:35;;;;;;;;;;;;;;;5.28;58.26;100629.47;1074808;54;19943;-84
2023/04/02 19:51:54;;;;;;;;;;;;;;;5.34;58.21;100652.09;1087803;54;19945;-82
2023/04/02 19:53:00;;;;;;;;;;;;;;;5.28;58.56;100644.53;1088726;54;19941;-83
2023/04/02 19:54:06;;;;;;;;;;;;;;;5.35;58.44;100652.94;1088641;54;19949;-82
2023/04/02 19:55:23;;;;;;;;;;;;;;;5.40;58.46;100649.03;1088315;54;19954;-83
2023/04/02 20:54:10;;;;;;;;;;;;;;;5.21;58.06;100715.63;1087300;54;19926;-85
2023/04/02 20:55:19;;;;;;;;;;;;;;;5.20;58.19;100715.72;1087750;54;19947;-83
2023/04/02 21:36:01;;;;;;;;;;;;;;;5.02;57.19;100746.84;1088579;54;19957;-84
2023/04/02 21:37:03;;;;;;;;;;;;;;;5.03;57.05;100748.56;1088493;54;20629;-82
2023/04/02 21:38:08;;;;;;;;;;;;;;;4.97;56.31;100752.41;1088397;54;20654;-83
2023/04/02 21:50:43;;;;;;;;;;;;;;;4.90;56.16;100757.22;1088317;54;19927;-83
2023/04/02 21:57:06;;;;;;;;;;;;;;;4.98;55.18;100756.78;1087482;54;19939;-82
2023/04/02 21:58:13;;;;;;;;;;;;;;;4.97;54.78;100760.38;1088365;54;19934;-83
2023/04/02 21:59:21;;;;;;;;;;;;;;;5.08;54.64;100775.63;1088325;54;19935;-83
2023/04/02 22:00:25;;;;;;;;;;;;;;;5.03;54.43;100767.94;1088344;54;19923;-84
2023/04/02 22:01:31;;;;;;;;;;;;;;;4.92;54.82;100765.06;1089614;46;19934;-84
2023/04/02 22:02:36;;;;;;;;;;;;;;;4.93;55.06;100766.78;1088384;54;19966;-83
2023/04/02 22:03:48;;;;;;;;;;;;;;;4.84;55.09;100773.50;1088348;54;19927;-83
2023/04/02 22:11:18;;;;;;;;;;;;;;;4.88;55.00;100763.56;1087802;54;19942;-83
2023/04/02 22:14:15;;;;;;;;;;;;;;;4.87;55.34;100764.50;1088025;54;19954;-84
2023/04/02 22:15:22;;;;;;;;;;;;;;;4.84;55.41;100766.38;1088159;54;19935;-83
2023/04/02 22:16:34;;;;;;;;;;;;;;;4.81;55.37;100771.88;1088119;54;20011;-82
2023/04/02 22:17:35;;;;;;;;;;;;;;;4.80;55.83;100770.19;1088016;54;19946;-84
2023/04/02 22:19:12;;;;;;;;;;;;;;;4.90;55.71;100759.03;1087977;54;19927;-84
2023/04/02 22:20:16;;;;;;;;;;;;;;;4.94;55.49;100763.19;1087837;54;19943;-82
2023/04/02 22:26:26;;;;;;;;;;;;;;;4.79;55.35;100759.66;1087803;54;19946;-82
2023/04/02 22:27:41;;;;;;;;;;;;;;;4.78;55.57;100766.75;1088333;54;19983;-84
2023/04/02 22:28:43;;;;;;;;;;;;;;;4.84;55.31;100761.09;1088246;54;19927;-84
2023/04/02 22:29:55;;;;;;;;;;;;;;;4.87;55.38;100764.50;1088229;54;19973;-83
2023/04/02 22:31:00;;;;;;;;;;;;;;;4.84;55.61;100769.03;1088327;54;19966;-83
2023/04/02 22:41:06;;;;;;;;;;;;;;;4.85;55.37;100767.25;1087937;54;19990;-82
2023/04/02 22:42:16;;;;;;;;;;;;;;;4.89;55.34;100758.16;1090393;47;19957;-84
2023/04/02 22:55:20;;;;;;;;;;;;;;;4.78;55.51;100750.88;1087924;54;19943;-83
2023/04/02 22:56:34;;;;;;;;;;;;;;;4.81;55.66;100747.16;1088214;54;20548;-83
2023/04/02 22:57:42;;;;;;;;;;;;;;;4.80;55.53;100754.28;1088384;54;19950;-83
2023/04/02 22:58:49;;;;;;;;;;;;;;;4.82;55.72;100751.53;1088207;54;20003;-84
2023/04/02 23:12:41;;;;;;;;;;;;;;;4.68;56.01;100750.53;1087010;54;19927;-83
2023/04/02 23:13:57;;;;;;;;;;;;;;;4.70;55.82;100747.81;1088172;54;19926;-83
2023/04/02 23:16:10;;;;;;;;;;;;;;;4.81;55.43;100744.53;1087949;54;19990;-83
2023/04/02 23:17:13;;;;;;;;;;;;;;;4.77;55.62;100749.16;1088369;54;19959;-83
2023/04/02 23:18:23;;;;;;;;;;;;;;;4.70;55.77;100750.47;1112052;39;20677;-84
2023/04/02 23:20:30;;;;;;;;;;;;;;;4.63;56.05;100755.25;1087616;54;19935;-83
2023/04/02 23:21:35;;;;;;;;;;;;;;;4.58;55.93;100757.31;1088447;54;20278;-84
2023/04/02 23:22:39;;;;;;;;;;;;;;;4.71;55.79;100764.53;1095954;47;19930;-84
2023/04/02 23:24:47;;;;;;;;;;;;;;;4.66;55.89;100757.72;1087928;54;19931;-84
2023/04/02 23:26:05;;;;;;;;;;;;;;;4.67;55.87;100759.44;1088502;54;19935;-83
2023/04/02 23:27:11;;;;;;;;;;;;;;;4.66;55.67;100749.78;1088539;54;19942;-82
2023/04/02 23:28:13;;;;;;;;;;;;;;;4.61;55.79;100751.00;1091869;47;19958;-82
2023/04/02 23:29:28;;;;;;;;;;;;;;;4.62;55.95;100764.13;1100483;47;19931;-83
2023/04/02 23:30:29;;;;;;;;;;;;;;;4.56;55.94;100761.84;1090221;47;19923;-83
2023/04/02 23:34:55;;;;;;;;;;;;;;;4.67;56.54;100761.22;1087977;54;19947;-85
2023/04/02 23:41:00;;;;;;;;;;;;;;;4.60;56.48;100768.66;1090197;39;21032;-84
